Main page
Satellite images 10-day forecastsClimateMarine weather Cyclones Lightning AirportsFAQ Newsletter About
Weather : Europe Africa North America South America Asia Australia-Oceania Others
Languages Contact

Waddington, England

RAF

latitude: 53-10N, longitude: 000-31W, elevation: 68 m


METAR: EGXW 290550Z 24017KT 9999 FEW033 BKN120 02/M01 Q0985 BLU
TAF: missing

Time: 06:13 (06:13 UTC)

Current weather observation

The report was made 23 minutes ago, at 05:50 UTC
Wind 17 kt from the West/Southwest
Temperature 2°C
Humidity 80%
Pressure 985 hPa
Visibility 10 km or more
Few clouds at a height of 3300 ft
Broken clouds at a height of 12000 ft

Change units
The information on this site is subject to a disclaimer
Weather : Europe Africa North America South America Asia Australia-Oceania Others
Satellite images 10-day forecastsClimateMarine weather Cyclones Lightning AirportsFAQ Languages Contact Newsletter About